Time;durP1;ratioP1;P1;durP2;ratioP2;P2;SDS_P1;SDS_P2;PMS_P1;PMS_P2;Temp;Humidity;BMP_temperature;BMP_pressure;BME280_temperature;BME280_humidity;BME280_pressure;Samples;Min_cycle;Max_cycle;Signal;HPM_P1;HPM_P2
2023/05/25 00:02:36;;;;;;;3.95;1.77;;;15.10;84.10;;;;;;10486131;28;20017;-65
2023/05/25 00:07:37;;;;;;;3.05;2.00;;;15.00;84.10;;;;;;10487673;28;20112;-65
2023/05/25 00:12:42;;;;;;;3.70;1.90;;;15.00;84.10;;;;;;10483584;28;20036;-65
2023/05/25 00:17:42;;;;;;;3.83;1.55;;;15.00;84.10;;;;;;10499618;28;20016;-66
2023/05/25 00:22:46;;;;;;;4.78;2.15;;;15.00;84.00;;;;;;10493409;28;20024;-65
2023/05/25 00:27:47;;;;;;;6.00;1.95;;;14.90;84.00;;;;;;10488066;28;20020;-65
2023/05/25 00:32:47;;;;;;;3.38;1.63;;;15.00;84.00;;;;;;10486198;28;20024;-65
2023/05/25 00:37:49;;;;;;;3.60;1.67;;;14.90;84.00;;;;;;10478799;28;20028;-64
2023/05/25 00:42:50;;;;;;;6.25;1.80;;;14.90;84.00;;;;;;10492048;28;20433;-65
2023/05/25 00:47:51;;;;;;;3.97;1.55;;;14.90;84.00;;;;;;10475382;28;20085;-65
2023/05/25 00:52:53;;;;;;;4.00;1.58;;;14.80;83.90;;;;;;10492877;28;20032;-64
2023/05/25 00:57:56;;;;;;;3.08;1.40;;;14.80;84.00;;;;;;10468656;28;20036;-64
2023/05/25 01:02:58;;;;;;;3.10;1.52;;;14.80;84.00;;;;;;10491777;28;20028;-65
2023/05/25 01:08:02;;;;;;;3.65;1.80;;;14.80;84.00;;;;;;10485181;28;20077;-65
2023/05/25 01:13:05;;;;;;;4.72;1.80;;;14.80;84.00;;;;;;10490042;28;20027;-65
2023/05/25 01:18:08;;;;;;;5.30;2.55;;;14.80;84.00;;;;;;10481070;28;20016;-65
2023/05/25 01:23:13;;;;;;;4.25;1.75;;;14.70;83.90;;;;;;10485255;28;20334;-65
2023/05/25 01:28:22;;;;;;;2.83;1.55;;;14.80;84.00;;;;;;10493692;28;20095;-65
2023/05/25 01:33:23;;;;;;;4.88;1.52;;;14.70;83.90;;;;;;10476399;28;20127;-65
2023/05/25 01:38:23;;;;;;;3.45;1.92;;;14.70;83.90;;;;;;10492429;28;20031;-64
2023/05/25 01:43:24;;;;;;;3.40;1.70;;;14.60;83.90;;;;;;10491345;28;20029;-65
2023/05/25 01:48:44;;;;;;;4.70;1.63;;;14.60;83.90;;;;;;10478876;28;20365;-64
2023/05/25 01:53:51;;;;;;;2.97;1.65;;;14.60;84.00;;;;;;10477451;28;20035;-66
2023/05/25 01:58:53;;;;;;;4.85;1.75;;;14.60;83.90;;;;;;10468368;28;20111;-65
2023/05/25 02:03:55;;;;;;;3.65;2.00;;;14.60;84.00;;;;;;10468118;28;20404;-65
2023/05/25 02:08:55;;;;;;;3.85;1.95;;;14.50;83.90;;;;;;10470874;28;20077;-65
2023/05/25 02:13:56;;;;;;;5.18;2.00;;;14.60;84.00;;;;;;10468155;28;20439;-65
2023/05/25 02:18:57;;;;;;;3.60;1.50;;;14.60;84.00;;;;;;10474198;28;20051;-66
2023/05/25 02:23:57;;;;;;;6.43;2.35;;;14.50;83.90;;;;;;10474251;28;20021;-64
2023/05/25 02:28:58;;;;;;;5.55;1.95;;;14.50;84.00;;;;;;10471855;28;20040;-65
2023/05/25 02:33:58;;;;;;;3.95;1.75;;;14.40;84.00;;;;;;10473595;28;20020;-65
2023/05/25 02:38:59;;;;;;;3.45;1.83;;;14.40;84.00;;;;;;10470385;28;20112;-64
2023/05/25 02:44:00;;;;;;;5.28;2.28;;;14.40;84.60;;;;;;10465651;28;20063;-65
2023/05/25 02:49:01;;;;;;;3.50;1.90;;;14.40;84.00;;;;;;10472710;28;20052;-64
2023/05/25 02:54:02;;;;;;;4.60;2.00;;;14.40;84.00;;;;;;10477465;28;20108;-65
2023/05/25 02:59:02;;;;;;;3.30;1.67;;;14.40;84.00;;;;;;10479841;28;20487;-65
2023/05/25 03:04:03;;;;;;;7.15;1.95;;;14.40;84.70;;;;;;10479334;28;20028;-65
2023/05/25 03:09:05;;;;;;;4.78;1.98;;;14.30;84.10;;;;;;10469731;28;20041;-64
2023/05/25 03:14:05;;;;;;;4.00;1.80;;;14.30;84.20;;;;;;10474935;28;20396;-66
2023/05/25 03:19:06;;;;;;;4.53;1.90;;;14.30;84.10;;;;;;10487119;28;20036;-64
2023/05/25 03:24:06;;;;;;;4.70;2.38;;;14.30;84.20;;;;;;10479684;28;20023;-63
2023/05/25 03:29:07;;;;;;;6.20;2.08;;;14.30;84.20;;;;;;10487621;28;20032;-65
2023/05/25 03:34:08;;;;;;;4.97;2.00;;;14.20;84.20;;;;;;10468167;28;20416;-65
2023/05/25 03:39:09;;;;;;;4.10;2.08;;;14.20;84.20;;;;;;10478887;28;20035;-65
2023/05/25 03:44:09;;;;;;;4.85;1.88;;;14.20;84.20;;;;;;10479035;28;20017;-64
2023/05/25 03:49:12;;;;;;;4.50;2.08;;;14.20;84.20;;;;;;10476380;28;20044;-64
2023/05/25 03:54:13;;;;;;;5.05;1.75;;;14.20;84.20;;;;;;10478649;28;20029;-64
2023/05/25 03:59:13;;;;;;;3.85;2.00;;;14.30;84.30;;;;;;10479295;28;20020;-64
2023/05/25 04:04:14;;;;;;;4.82;1.92;;;14.20;84.20;;;;;;10487498;28;20047;-64
2023/05/25 04:09:15;;;;;;;3.10;1.80;;;14.20;84.20;;;;;;10484772;28;20041;-64
2023/05/25 04:14:15;;;;;;;3.42;1.80;;;14.10;84.20;;;;;;10470881;28;20025;-63
2023/05/25 04:19:16;;;;;;;4.60;1.95;;;14.10;84.20;;;;;;10481477;28;20029;-64
2023/05/25 04:24:17;;;;;;;4.35;1.80;;;14.10;84.20;;;;;;10480263;28;20017;-64
2023/05/25 04:29:17;;;;;;;4.45;1.90;;;14.10;84.20;;;;;;10482035;28;20035;-64
2023/05/25 04:34:20;;;;;;;4.50;1.90;;;14.10;84.20;;;;;;10479002;28;20060;-64
2023/05/25 04:39:20;;;;;;;5.30;2.00;;;14.10;84.20;;;;;;10475486;28;20042;-64
2023/05/25 04:44:22;;;;;;;3.33;1.85;;;14.10;84.20;;;;;;10476540;28;20090;-64
2023/05/25 04:49:23;;;;;;;4.85;2.00;;;14.10;84.20;;;;;;10479684;28;20016;-65
2023/05/25 04:54:24;;;;;;;4.43;1.90;;;14.10;84.30;;;;;;10483958;28;20028;-65
2023/05/25 04:59:25;;;;;;;3.47;1.77;;;14.10;84.30;;;;;;10475823;28;20078;-64
2023/05/25 05:04:25;;;;;;;3.97;1.88;;;14.10;84.30;;;;;;10474411;28;20025;-64
2023/05/25 05:09:26;;;;;;;4.35;1.75;;;14.00;84.30;;;;;;10492016;28;20720;-64
2023/05/25 05:14:26;;;;;;;4.45;1.63;;;14.10;84.30;;;;;;10482412;28;20028;-64
2023/05/25 05:19:27;;;;;;;5.10;2.00;;;14.10;84.30;;;;;;10481986;28;20099;-65
2023/05/25 05:24:28;;;;;;;4.43;1.85;;;14.10;84.90;;;;;;10480137;28;20029;-64
2023/05/25 05:29:28;;;;;;;6.72;2.17;;;14.10;84.30;;;;;;10486123;28;20039;-64
2023/05/25 05:34:29;;;;;;;4.28;1.92;;;14.10;84.40;;;;;;10484296;28;20016;-64
2023/05/25 05:39:30;;;;;;;8.32;2.50;;;14.10;84.40;;;;;;10472240;28;20476;-64
2023/05/25 05:44:30;;;;;;;3.50;1.80;;;14.10;84.40;;;;;;10480305;28;20284;-64
2023/05/25 05:49:31;;;;;;;7.18;1.95;;;14.10;84.40;;;;;;10478293;28;20680;-65
2023/05/25 05:54:32;;;;;;;4.57;1.90;;;14.20;84.60;;;;;;10479709;28;20288;-64
2023/05/25 05:59:33;;;;;;;4.22;1.77;;;14.20;84.50;;;;;;10478947;28;20024;-64
2023/05/25 06:04:34;;;;;;;4.22;2.25;;;14.30;84.70;;;;;;10461646;28;20120;-64
2023/05/25 06:09:35;;;;;;;3.95;1.67;;;14.20;84.60;;;;;;10479145;28;20028;-64
2023/05/25 06:14:35;;;;;;;6.30;2.00;;;14.20;84.80;;;;;;10474658;28;20069;-64
2023/05/25 06:19:36;;;;;;;4.82;1.70;;;14.20;84.80;;;;;;10465772;28;20036;-64
2023/05/25 06:24:36;;;;;;;4.40;1.80;;;14.30;84.80;;;;;;10480675;28;20186;-64
2023/05/25 06:29:37;;;;;;;4.85;1.63;;;14.20;84.80;;;;;;10483793;28;20406;-64
2023/05/25 06:34:38;;;;;;;5.80;2.00;;;14.20;84.90;;;;;;10471147;28;20025;-65
2023/05/25 06:39:39;;;;;;;4.20;2.85;;;14.30;85.50;;;;;;10470290;28;20508;-64
2023/05/25 06:44:39;;;;;;;4.03;2.00;;;14.30;85.00;;;;;;10478960;28;20025;-65
2023/05/25 06:49:40;;;;;;;4.15;1.88;;;14.30;85.00;;;;;;10478772;28;20032;-64
2023/05/25 06:54:41;;;;;;;3.53;1.75;;;14.30;85.60;;;;;;10474898;28;20614;-64
2023/05/25 06:59:41;;;;;;;3.92;1.60;;;14.40;85.60;;;;;;10482860;28;20504;-65
2023/05/25 07:04:42;;;;;;;2.88;1.70;;;14.40;85.00;;;;;;10480753;28;20033;-64
2023/05/25 07:09:42;;;;;;;2.97;1.60;;;14.40;85.00;;;;;;10473380;28;20028;-64
2023/05/25 07:14:46;;;;;;;4.50;2.10;;;14.40;85.00;;;;;;10472037;28;20016;-65
2023/05/25 07:19:48;;;;;;;5.07;2.00;;;14.50;85.00;;;;;;10479665;28;20020;-64
2023/05/25 07:24:49;;;;;;;5.50;1.70;;;14.60;85.10;;;;;;10478279;28;20009;-65
2023/05/25 07:29:50;;;;;;;3.70;1.33;;;14.60;85.20;;;;;;10471915;28;20864;-64
2023/05/25 07:34:50;;;;;;;4.43;1.90;;;14.70;85.30;;;;;;10467886;28;20232;-64
2023/05/25 07:39:51;;;;;;;2.55;1.48;;;14.70;85.40;;;;;;10484721;28;20051;-64
2023/05/25 07:44:52;;;;;;;7.35;2.65;;;14.80;85.50;;;;;;10491031;28;20017;-69
2023/05/25 07:49:53;;;;;;;3.05;1.58;;;14.80;85.90;;;;;;10473691;28;20061;-65
2023/05/25 07:54:53;;;;;;;5.30;1.52;;;14.80;86.00;;;;;;10484551;28;20033;-64
2023/05/25 07:59:54;;;;;;;3.00;1.67;;;14.80;85.90;;;;;;10482994;28;20036;-64
2023/05/25 08:04:54;;;;;;;3.05;1.33;;;14.90;85.80;;;;;;10479791;28;20530;-64
2023/05/25 08:09:55;;;;;;;7.22;2.10;;;14.90;85.80;;;;;;10489146;28;20032;-64
2023/05/25 08:14:56;;;;;;;3.00;1.55;;;15.00;85.80;;;;;;10488600;28;20299;-64
2023/05/25 08:19:56;;;;;;;4.40;1.90;;;15.00;85.80;;;;;;10491417;28;20492;-64
2023/05/25 08:24:57;;;;;;;4.40;1.83;;;15.00;85.90;;;;;;10477252;28;20028;-69
2023/05/25 08:29:58;;;;;;;3.97;1.80;;;15.10;85.90;;;;;;10478219;28;20046;-64
2023/05/25 08:34:58;;;;;;;5.47;2.03;;;15.10;86.00;;;;;;10473237;28;20524;-64
2023/05/25 08:40:01;;;;;;;4.38;1.70;;;15.10;86.10;;;;;;10484427;28;20025;-64
2023/05/25 08:45:02;;;;;;;3.80;1.98;;;15.10;86.10;;;;;;10481018;28;20036;-65
2023/05/25 08:50:03;;;;;;;5.53;1.70;;;15.10;86.30;;;;;;10480596;28;20795;-64
2023/05/25 08:55:07;;;;;;;2.45;1.50;;;15.10;86.30;;;;;;10481354;28;20030;-65
2023/05/25 09:00:09;;;;;;;2.33;1.65;;;15.20;86.20;;;;;;10486149;28;20044;-66
2023/05/25 09:05:12;;;;;;;3.13;1.48;;;15.20;86.20;;;;;;10478882;28;20404;-66
2023/05/25 09:10:13;;;;;;;4.65;1.65;;;15.30;86.30;;;;;;10490959;28;20127;-66
2023/05/25 09:15:14;;;;;;;6.00;2.03;;;15.30;86.40;;;;;;10493792;28;20044;-68
2023/05/25 09:20:17;;;;;;;8.98;2.63;;;15.20;86.30;;;;;;10475336;28;20032;-69
2023/05/25 09:25:21;;;;;;;7.80;2.50;;;15.20;86.80;;;;;;10469694;28;20021;-69
2023/05/25 09:30:21;;;;;;;10.50;2.92;;;15.10;87.50;;;;;;10475195;28;20029;-69
2023/05/25 09:35:23;;;;;;;8.02;2.65;;;14.90;87.60;;;;;;10492331;28;20024;-69
2023/05/25 09:40:25;;;;;;;7.07;2.22;;;14.90;88.00;;;;;;10471628;28;20071;-69
2023/05/25 09:45:25;;;;;;;9.02;2.70;;;14.90;87.70;;;;;;10468251;28;20023;-70
2023/05/25 09:50:27;;;;;;;8.43;2.40;;;14.80;87.60;;;;;;10477988;28;20043;-70
2023/05/25 09:55:29;;;;;;;10.18;3.20;;;14.90;88.00;;;;;;10481167;28;20048;-70
2023/05/25 10:00:30;;;;;;;11.57;3.25;;;14.70;88.20;;;;;;10474722;28;20021;-70
2023/05/25 10:05:31;;;;;;;13.57;3.90;;;14.70;88.30;;;;;;10471935;28;20036;-68
2023/05/25 10:10:32;;;;;;;12.48;3.10;;;14.80;88.40;;;;;;10479623;28;20387;-69
2023/05/25 10:15:35;;;;;;;10.27;3.17;;;15.00;88.00;;;;;;10480987;28;20016;-69
2023/05/25 10:20:35;;;;;;;9.40;3.72;;;15.10;87.60;;;;;;10473523;28;20027;-69
2023/05/25 10:25:42;;;;;;;9.65;3.30;;;15.20;87.50;;;;;;10474605;28;20044;-70
2023/05/25 10:30:44;;;;;;;13.02;3.10;;;15.00;88.00;;;;;;10490992;28;20023;-70
2023/05/25 10:35:45;;;;;;;13.88;2.67;;;14.90;87.00;;;;;;10479603;28;20016;-70
2023/05/25 10:40:47;;;;;;;12.18;2.55;;;15.00;86.60;;;;;;10476056;28;20021;-70
2023/05/25 10:45:48;;;;;;;15.30;2.65;;;15.10;85.90;;;;;;10478116;28;20644;-70
2023/05/25 10:50:50;;;;;;;13.45;3.00;;;15.40;85.20;;;;;;10475444;28;20027;-71
2023/05/25 10:55:53;;;;;;;14.30;3.47;;;15.30;84.60;;;;;;10474731;28;20273;-70
2023/05/25 11:01:01;;;;;;;10.55;2.70;;;15.50;84.00;;;;;;10473227;28;20013;-70
2023/05/25 11:06:01;;;;;;;15.00;3.03;;;15.90;83.30;;;;;;10476235;28;20566;-70
2023/05/25 11:11:02;;;;;;;16.10;3.75;;;16.00;82.50;;;;;;10484549;28;20032;-70
2023/05/25 11:16:25;;;;;;;10.63;2.33;;;16.10;82.30;;;;;;10494013;28;20039;-70
2023/05/25 11:21:26;;;;;;;9.40;2.80;;;15.80;81.10;;;;;;10474393;28;20086;-69
2023/05/25 11:26:31;;;;;;;9.20;2.70;;;15.80;82.10;;;;;;10484675;28;20032;-70
2023/05/25 11:31:33;;;;;;;9.68;2.63;;;15.90;81.20;;;;;;10482695;28;20082;-70
2023/05/25 11:36:35;;;;;;;15.98;3.33;;;16.10;80.90;;;;;;10481316;28;20499;-70
2023/05/25 11:41:36;;;;;;;15.98;2.78;;;16.10;80.40;;;;;;10484069;28;20051;-68
2023/05/25 11:46:37;;;;;;;11.02;2.65;;;15.90;80.90;;;;;;10485025;28;20552;-68
2023/05/25 11:51:38;;;;;;;17.83;3.35;;;16.00;80.70;;;;;;10480414;28;20056;-68
2023/05/25 11:56:38;;;;;;;12.02;2.67;;;16.20;80.20;;;;;;10486883;28;20025;-68
2023/05/25 12:01:40;;;;;;;13.77;2.90;;;16.20;79.80;;;;;;10482118;28;20021;-69
2023/05/25 12:06:40;;;;;;;16.50;3.50;;;16.40;79.80;;;;;;10488941;28;20407;-68
2023/05/25 12:11:44;;;;;;;9.63;2.60;;;16.20;79.90;;;;;;10479766;28;20047;-68
2023/05/25 12:16:45;;;;;;;13.63;3.33;;;16.50;79.90;;;;;;10478315;28;20052;-69
2023/05/25 12:21:49;;;;;;;12.93;2.78;;;16.60;79.00;;;;;;10486983;28;20070;-69
2023/05/25 12:26:56;;;;;;;13.38;3.33;;;16.70;78.70;;;;;;10481080;28;20441;-68
2023/05/25 12:32:04;;;;;;;11.65;2.83;;;16.70;77.80;;;;;;10482094;28;20017;-68
2023/05/25 12:37:16;;;;;;;12.90;2.88;;;16.80;76.30;;;;;;10480707;28;20067;-69
2023/05/25 12:42:17;;;;;;;17.38;3.15;;;16.90;77.50;;;;;;10474550;28;20020;-68
2023/05/25 12:47:22;;;;;;;12.82;2.85;;;17.00;77.70;;;;;;10471315;28;20029;-68
2023/05/25 12:52:40;;;;;;;17.77;3.03;;;17.00;77.30;;;;;;10483490;28;20038;-68
2023/05/25 12:57:40;;;;;;;14.17;2.90;;;17.00;75.30;;;;;;10481191;28;20494;-68
2023/05/25 13:02:44;;;;;;;14.50;3.35;;;17.20;76.70;;;;;;10479009;28;20028;-68
2023/05/25 13:07:46;;;;;;;13.55;2.95;;;17.30;76.60;;;;;;10478266;28;20028;-69
2023/05/25 13:12:48;;;;;;;12.77;3.03;;;17.60;75.90;;;;;;10495022;28;20056;-68
2023/05/25 13:17:50;;;;;;;15.82;3.97;;;17.70;74.60;;;;;;10484121;28;20032;-68
2023/05/25 13:22:52;;;;;;;14.80;3.00;;;17.70;74.50;;;;;;10495328;28;20106;-69
2023/05/25 13:27:53;;;;;;;15.18;4.13;;;17.80;74.20;;;;;;10481736;28;20036;-68
2023/05/25 13:32:54;;;;;;;16.80;3.63;;;17.80;74.50;;;;;;10496389;28;20017;-68
2023/05/25 13:37:54;;;;;;;22.30;3.20;;;17.90;74.10;;;;;;10486212;28;20036;-69
2023/05/25 13:42:55;;;;;;;8.73;2.83;;;18.10;73.20;;;;;;10475277;28;20542;-69
2023/05/25 13:47:56;;;;;;;10.15;2.63;;;18.20;73.10;;;;;;10477513;28;20392;-69
2023/05/25 13:52:56;;;;;;;12.80;2.97;;;18.50;72.90;;;;;;10478965;28;20036;-68
2023/05/25 13:57:57;;;;;;;15.05;4.38;;;18.20;73.10;;;;;;10490020;28;20085;-68
2023/05/25 14:02:58;;;;;;;15.70;3.05;;;18.30;73.20;;;;;;10489074;28;20028;-68
2023/05/25 14:08:03;;;;;;;13.25;3.85;;;18.20;73.10;;;;;;10485128;28;20037;-68
2023/05/25 14:13:04;;;;;;;11.50;3.00;;;18.40;73.60;;;;;;10500301;28;20488;-68
2023/05/25 14:18:04;;;;;;;13.82;3.40;;;18.50;73.10;;;;;;10476344;28;20115;-69
2023/05/25 14:23:05;;;;;;;19.17;3.55;;;18.40;72.90;;;;;;10492002;28;20097;-71
2023/05/25 14:28:06;;;;;;;12.57;3.20;;;18.30;72.60;;;;;;10481675;28;20392;-70
2023/05/25 14:33:06;;;;;;;13.38;3.25;;;18.40;72.70;;;;;;10477400;28;20496;-69
2023/05/25 14:38:07;;;;;;;13.60;3.20;;;18.60;72.80;;;;;;10479037;28;20028;-69
2023/05/25 14:43:08;;;;;;;11.40;4.03;;;18.90;72.80;;;;;;10479150;28;20119;-70
2023/05/25 14:48:09;;;;;;;18.35;4.35;;;19.00;72.40;;;;;;10487525;28;20115;-70
2023/05/25 14:53:10;;;;;;;14.73;3.80;;;18.80;71.80;;;;;;10480303;28;20043;-70
2023/05/25 14:58:10;;;;;;;18.17;3.10;;;18.80;72.00;;;;;;10483148;28;20020;-70
2023/05/25 15:03:11;;;;;;;15.07;2.92;;;18.90;71.50;;;;;;10492739;28;20016;-70
2023/05/25 15:08:12;;;;;;;12.15;3.00;;;18.60;71.10;;;;;;10490292;28;20043;-72
2023/05/25 15:13:13;;;;;;;14.73;3.33;;;18.50;71.50;;;;;;10473800;28;20033;-70
2023/05/25 15:18:13;;;;;;;16.38;3.13;;;18.40;71.20;;;;;;10475559;28;20093;-72
2023/05/25 15:23:14;;;;;;;11.68;3.95;;;18.50;71.10;;;;;;10485692;28;20039;-72
2023/05/25 15:28:15;;;;;;;12.73;3.05;;;18.50;70.90;;;;;;10472561;28;20044;-72
2023/05/25 15:33:15;;;;;;;9.80;3.83;;;18.30;71.10;;;;;;10478403;28;20009;-71
2023/05/25 15:38:16;;;;;;;16.15;4.30;;;18.20;70.80;;;;;;10486549;28;20029;-72
2023/05/25 15:43:16;;;;;;;20.27;4.60;;;17.90;71.40;;;;;;10486152;28;20020;-71
2023/05/25 15:48:17;;;;;;;13.32;3.38;;;18.20;71.70;;;;;;10487282;28;20507;-70
2023/05/25 15:53:18;;;;;;;12.32;3.17;;;18.10;72.00;;;;;;10481756;28;20392;-70
2023/05/25 15:58:18;;;;;;;13.35;3.47;;;17.80;72.60;;;;;;10475431;28;20029;-70
2023/05/25 16:03:19;;;;;;;13.25;3.75;;;17.70;72.90;;;;;;10486393;28;20032;-70
2023/05/25 16:08:19;;;;;;;13.55;4.07;;;17.40;73.40;;;;;;10473997;28;20029;-71
2023/05/25 16:13:20;;;;;;;11.18;3.90;;;17.10;74.00;;;;;;10484521;28;20029;-70
2023/05/25 16:18:21;;;;;;;18.50;4.30;;;16.90;74.40;;;;;;10488690;28;20028;-70
2023/05/25 16:23:22;;;;;;;21.15;4.32;;;16.60;74.90;;;;;;10481538;28;20024;-70
2023/05/25 16:28:22;;;;;;;11.68;3.67;;;16.40;75.10;;;;;;10483702;28;20078;-76
2023/05/25 16:33:23;;;;;;;14.73;3.58;;;16.20;75.10;;;;;;10484345;28;20378;-70
2023/05/25 16:38:24;;;;;;;21.05;3.75;;;16.10;75.30;;;;;;10488513;28;20032;-70
2023/05/25 16:43:25;;;;;;;14.82;3.35;;;16.00;75.50;;;;;;10482893;28;20044;-69
2023/05/25 16:48:28;;;;;;;15.52;4.38;;;15.90;75.90;;;;;;10470234;28;20052;-69
2023/05/25 16:53:29;;;;;;;10.45;3.90;;;15.80;76.20;;;;;;10478259;28;20093;-71
2023/05/25 16:58:30;;;;;;;13.65;3.15;;;15.70;76.50;;;;;;10479248;28;20059;-72
2023/05/25 17:03:30;;;;;;;11.65;3.75;;;15.60;76.60;;;;;;10473355;28;20028;-70
2023/05/25 17:08:31;;;;;;;11.90;3.15;;;15.60;76.90;;;;;;10474586;28;20480;-69
2023/05/25 17:13:31;;;;;;;14.00;3.72;;;15.50;76.90;;;;;;10486489;28;20063;-70
2023/05/25 17:18:32;;;;;;;10.65;3.22;;;15.50;77.40;;;;;;10478120;28;20589;-71
2023/05/25 17:23:33;;;;;;;15.27;3.22;;;15.40;77.50;;;;;;10484363;28;20063;-73
2023/05/25 17:28:34;;;;;;;15.98;3.55;;;15.40;77.80;;;;;;10481598;28;20498;-74
2023/05/25 17:33:34;;;;;;;17.15;3.97;;;15.30;78.00;;;;;;10484019;28;20441;-72
2023/05/25 17:38:36;;;;;;;13.65;3.05;;;15.20;78.10;;;;;;10485267;28;20467;-74
2023/05/25 17:43:37;;;;;;;17.95;3.60;;;15.10;78.20;;;;;;10475594;28;20013;-67
2023/05/25 17:48:38;;;;;;;19.17;3.42;;;15.30;78.20;;;;;;10474903;28;20033;-66
2023/05/25 17:53:38;;;;;;;12.25;2.83;;;15.70;77.90;;;;;;10476349;28;20207;-66
2023/05/25 17:58:39;;;;;;;13.63;2.92;;;16.10;77.70;;;;;;10473937;28;20454;-66
2023/05/25 18:03:40;;;;;;;11.98;2.60;;;16.30;77.40;;;;;;10468857;28;20028;-67
2023/05/25 18:08:41;;;;;;;9.68;2.50;;;16.50;77.40;;;;;;10477438;28;20494;-67
2023/05/25 18:13:41;;;;;;;9.40;3.05;;;16.70;77.40;;;;;;10473509;28;20040;-67
2023/05/25 18:18:42;;;;;;;12.10;2.58;;;16.80;77.40;;;;;;10482849;28;20113;-67
2023/05/25 18:23:43;;;;;;;11.02;2.85;;;16.90;77.40;;;;;;10481007;28;20020;-67
2023/05/25 18:28:43;;;;;;;9.70;2.53;;;17.00;77.60;;;;;;10488608;28;20029;-67
2023/05/25 18:33:44;;;;;;;7.95;2.60;;;17.10;77.70;;;;;;10475970;28;20031;-66
2023/05/25 18:38:45;;;;;;;12.88;3.63;;;17.10;77.80;;;;;;10483054;28;20404;-67
2023/05/25 18:43:47;;;;;;;9.30;2.30;;;17.10;78.40;;;;;;10476979;28;20091;-67
2023/05/25 18:48:47;;;;;;;9.30;2.45;;;17.20;78.00;;;;;;10481375;28;20204;-67
2023/05/25 18:53:48;;;;;;;8.63;2.63;;;17.20;78.00;;;;;;10486621;28;20029;-67
2023/05/25 18:58:53;;;;;;;6.45;2.42;;;17.20;78.10;;;;;;10480958;28;20477;-67
2023/05/25 19:03:54;;;;;;;9.25;2.20;;;17.30;78.30;;;;;;10473226;28;20116;-67
2023/05/25 19:08:54;;;;;;;10.57;2.30;;;17.10;78.20;;;;;;10480044;28;20108;-67
2023/05/25 19:13:55;;;;;;;8.20;2.10;;;17.20;78.30;;;;;;10480890;28;20098;-67
2023/05/25 19:18:56;;;;;;;8.10;2.33;;;17.20;78.50;;;;;;10484470;28;20036;-67
2023/05/25 19:23:57;;;;;;;8.88;2.00;;;17.10;78.50;;;;;;10482106;28;20535;-67
2023/05/25 19:28:57;;;;;;;7.72;1.95;;;17.10;78.50;;;;;;10481977;28;20032;-67
2023/05/25 19:33:58;;;;;;;8.95;2.50;;;17.10;78.50;;;;;;10485688;28;20431;-67
2023/05/25 19:38:59;;;;;;;10.13;2.70;;;17.00;78.60;;;;;;10480141;28;20063;-67
2023/05/25 19:43:59;;;;;;;8.68;2.50;;;17.00;78.60;;;;;;10485056;28;20024;-67
2023/05/25 19:49:00;;;;;;;6.00;2.22;;;17.00;78.70;;;;;;10492316;28;20033;-67
2023/05/25 19:54:00;;;;;;;11.23;3.53;;;16.90;78.70;;;;;;10477278;28;20042;-67
2023/05/25 19:59:02;;;;;;;9.98;2.30;;;16.90;78.70;;;;;;10494495;28;20020;-67
2023/05/25 20:04:03;;;;;;;8.30;2.60;;;16.90;78.80;;;;;;10481552;28;20036;-67
2023/05/25 20:09:04;;;;;;;11.07;2.63;;;16.90;78.90;;;;;;10481413;28;20041;-67
2023/05/25 20:14:06;;;;;;;6.45;2.03;;;16.80;78.80;;;;;;10475884;28;20074;-67
2023/05/25 20:19:09;;;;;;;8.80;2.47;;;16.80;78.80;;;;;;10481800;28;20546;-67
2023/05/25 20:24:10;;;;;;;8.55;2.47;;;16.80;78.90;;;;;;10474991;28;20029;-67
2023/05/25 20:29:11;;;;;;;8.77;3.38;;;16.70;78.80;;;;;;10482768;28;20507;-66
2023/05/25 20:34:11;;;;;;;10.00;3.28;;;16.70;78.80;;;;;;10483486;28;20032;-66
2023/05/25 20:39:12;;;;;;;7.65;2.45;;;16.70;78.80;;;;;;10484703;28;20085;-66
2023/05/25 20:44:12;;;;;;;8.32;2.42;;;16.60;78.80;;;;;;10483809;28;20028;-66
2023/05/25 20:49:13;;;;;;;9.15;2.55;;;16.60;78.80;;;;;;10486972;28;20023;-66
2023/05/25 20:54:17;;;;;;;12.82;3.03;;;16.60;79.00;;;;;;10482590;28;20381;-65
2023/05/25 20:59:17;;;;;;;11.95;2.72;;;16.50;79.00;;;;;;10477050;28;20282;-66
2023/05/25 21:04:18;;;;;;;9.70;2.60;;;16.50;79.00;;;;;;10479378;28;20518;-65
2023/05/25 21:09:20;;;;;;;9.48;2.60;;;16.50;79.00;;;;;;10476073;28;20508;-66
2023/05/25 21:14:21;;;;;;;10.23;2.78;;;16.50;79.00;;;;;;10478574;28;20027;-66
2023/05/25 21:19:22;;;;;;;8.13;2.63;;;16.40;78.90;;;;;;10485573;28;20048;-66
2023/05/25 21:24:22;;;;;;;10.13;2.78;;;16.40;78.90;;;;;;10475894;28;20209;-65
2023/05/25 21:29:23;;;;;;;11.88;2.95;;;16.30;78.80;;;;;;10476515;28;20414;-66
2023/05/25 21:34:24;;;;;;;10.82;2.90;;;16.30;78.80;;;;;;10470142;28;20421;-65
2023/05/25 21:39:24;;;;;;;7.93;2.60;;;16.30;78.80;;;;;;10477971;28;20093;-66
2023/05/25 21:44:25;;;;;;;8.63;2.30;;;16.20;78.80;;;;;;10478173;28;20088;-65
2023/05/25 21:49:26;;;;;;;10.57;2.67;;;16.30;78.80;;;;;;10476286;28;20059;-66
2023/05/25 21:54:27;;;;;;;7.65;2.50;;;16.20;78.80;;;;;;10480743;28;20025;-66
2023/05/25 21:59:27;;;;;;;14.52;2.45;;;16.10;78.70;;;;;;10476869;28;20034;-66
2023/05/25 22:04:28;;;;;;;10.38;3.03;;;16.10;78.70;;;;;;10476708;28;20041;-69
2023/05/25 22:09:28;;;;;;;11.38;2.53;;;16.10;78.80;;;;;;10481621;28;20024;-67
2023/05/25 22:14:29;;;;;;;10.02;2.38;;;16.00;78.70;;;;;;10487462;28;20028;-66
2023/05/25 22:19:30;;;;;;;13.85;2.70;;;16.00;78.70;;;;;;10486942;28;20458;-66
2023/05/25 22:24:30;;;;;;;10.43;2.40;;;16.00;78.70;;;;;;10475176;28;20031;-67
2023/05/25 22:29:31;;;;;;;13.25;2.55;;;15.90;78.70;;;;;;10465941;28;20483;-65
2023/05/25 22:34:31;;;;;;;7.75;2.42;;;15.90;78.70;;;;;;10470123;28;20028;-65
2023/05/25 22:39:32;;;;;;;8.10;2.45;;;15.90;78.70;;;;;;10494056;28;20032;-65
2023/05/25 22:44:35;;;;;;;8.15;2.08;;;15.80;78.70;;;;;;10482550;28;20017;-66
2023/05/25 22:49:38;;;;;;;10.63;2.70;;;15.80;78.60;;;;;;10488403;28;20419;-66
2023/05/25 22:54:39;;;;;;;11.07;2.50;;;15.80;78.70;;;;;;10493602;28;20403;-66
2023/05/25 22:59:40;;;;;;;11.55;2.90;;;15.80;78.70;;;;;;10485482;28;20028;-66
2023/05/25 23:04:40;;;;;;;7.28;2.13;;;15.70;78.70;;;;;;10477843;28;20032;-65
2023/05/25 23:09:41;;;;;;;7.07;2.42;;;15.70;78.60;;;;;;10494181;28;20024;-65
2023/05/25 23:14:43;;;;;;;6.93;2.42;;;15.70;78.60;;;;;;10492229;28;20030;-66
2023/05/25 23:19:43;;;;;;;8.18;2.28;;;15.60;78.60;;;;;;10480620;28;20051;-65
2023/05/25 23:24:44;;;;;;;10.13;2.45;;;15.60;78.60;;;;;;10490708;28;20038;-65
2023/05/25 23:29:45;;;;;;;10.25;2.35;;;15.50;78.60;;;;;;10490863;28;20012;-65
2023/05/25 23:34:45;;;;;;;8.15;2.33;;;15.50;78.60;;;;;;10485620;28;20128;-65
2023/05/25 23:39:46;;;;;;;10.80;2.22;;;15.50;78.60;;;;;;10498419;28;20434;-65
2023/05/25 23:44:46;;;;;;;9.30;1.77;;;15.40;78.50;;;;;;10483887;28;20029;-66
2023/05/25 23:49:47;;;;;;;9.48;2.38;;;15.40;78.50;;;;;;10489775;28;20255;-66
2023/05/25 23:54:47;;;;;;;11.13;2.40;;;15.40;78.60;;;;;;10496301;28;20031;-66
2023/05/25 23:59:48;;;;;;;11.88;2.33;;;15.30;78.50;;;;;;10483431;28;20029;-65
